createdAt,value
2022-07-29T00:01:44.659Z,38.76
2022-07-29T00:04:12.386Z,38.73
2022-07-29T00:06:39.038Z,38.81
2022-07-29T00:09:05.903Z,38.72
2022-07-29T00:11:32.291Z,39.56
2022-07-29T00:13:58.710Z,39.53
2022-07-29T00:16:25.147Z,39.53
2022-07-29T00:18:53.866Z,39.76
2022-07-29T00:21:20.426Z,39.73
2022-07-29T00:23:46.854Z,39.86
2022-07-29T00:26:13.262Z,39.74
2022-07-29T00:28:39.712Z,39.67
2022-07-29T00:31:06.387Z,39.94
2022-07-29T00:33:32.901Z,40.08
2022-07-29T00:35:59.324Z,40.17
2022-07-29T00:38:25.788Z,40.22
2022-07-29T00:40:52.222Z,39.67
2022-07-29T00:43:18.808Z,40.54
2022-07-29T00:45:45.655Z,40.84
2022-07-29T00:48:12.261Z,41.02
2022-07-29T00:50:38.875Z,41.39
2022-07-29T00:53:08.108Z,41.16
2022-07-29T00:55:35.518Z,41.32
2022-07-29T00:58:02.150Z,41.27
2022-07-29T01:00:31.514Z,41.77
2022-07-29T01:02:58.123Z,41.70
2022-07-29T01:05:51.559Z,41.88
2022-07-29T01:08:16.290Z,41.49
2022-07-29T01:10:45.036Z,41.51
2022-07-29T01:13:12.855Z,41.75
2022-07-29T01:15:49.207Z,41.71
2022-07-29T01:18:31.189Z,41.98
2022-07-29T01:21:15.572Z,42.97
2022-07-29T01:24:07.239Z,43.55
2022-07-29T01:26:55.392Z,43.38
2022-07-29T01:29:21.798Z,42.94
2022-07-29T01:31:59.034Z,42.37
2022-07-29T01:34:45.783Z,42.08
2022-07-29T01:37:26.093Z,42.13
2022-07-29T01:39:56.312Z,42.02
2022-07-29T01:42:36.412Z,41.76
2022-07-29T01:45:17.942Z,41.66
2022-07-29T01:47:47.564Z,41.73
2022-07-29T01:50:18.511Z,41.80
2022-07-29T01:52:50.729Z,41.63
2022-07-29T01:55:20.969Z,41.73
2022-07-29T01:57:49.094Z,41.94
2022-07-29T02:00:16.951Z,41.79
2022-07-29T02:02:46.705Z,42.10
2022-07-29T02:05:16.628Z,41.86
2022-07-29T02:07:43.994Z,42.20
2022-07-29T02:10:13.184Z,42.38
2022-07-29T02:12:41.408Z,42.47
2022-07-29T02:15:10.808Z,42.93
2022-07-29T02:17:49.817Z,42.85
2022-07-29T02:20:17.116Z,42.81
2022-07-29T02:22:45.841Z,43.18
2022-07-29T02:25:14.730Z,43.65
2022-07-29T02:27:43.572Z,43.40
2022-07-29T02:30:11.657Z,43.65
2022-07-29T02:32:40.983Z,43.99
2022-07-29T02:35:10.206Z,44.36
2022-07-29T02:37:37.801Z,44.33
2022-07-29T02:40:06.964Z,45.00
2022-07-29T02:42:35.916Z,49.15
2022-07-29T02:45:02.318Z,51.54
2022-07-29T02:47:41.273Z,55.86
2022-07-29T02:50:20.998Z,58.89
2022-07-29T02:52:56.610Z,62.75
2022-07-29T02:55:33.028Z,66.09
2022-07-29T02:58:04.379Z,66.49
2022-07-29T03:00:34.278Z,68.22
2022-07-29T03:03:04.665Z,68.94
2022-07-29T03:05:32.086Z,70.04
2022-07-29T03:08:01.973Z,69.17
2022-07-29T03:10:29.269Z,68.80
2022-07-29T03:12:56.571Z,66.51
2022-07-29T03:15:24.124Z,65.80
2022-07-29T03:17:53.513Z,65.13
2022-07-29T03:20:20.395Z,65.57
2022-07-29T03:22:49.410Z,64.73
2022-07-29T03:25:17.475Z,64.79
2022-07-29T03:27:44.886Z,66.00
2022-07-29T03:30:12.562Z,65.85
2022-07-29T03:32:45.265Z,66.06
2022-07-29T03:35:12.266Z,65.79
2022-07-29T03:37:38.710Z,66.22
2022-07-29T03:40:09.687Z,67.61
2022-07-29T03:42:38.903Z,68.61
2022-07-29T03:45:09.241Z,66.06
2022-07-29T03:47:51.126Z,69.52
2022-07-29T03:50:21.220Z,71.43
2022-07-29T03:52:48.514Z,72.03
2022-07-29T03:55:16.143Z,71.23
2022-07-29T03:57:43.576Z,71.31
2022-07-29T04:00:11.114Z,72.53
2022-07-29T04:02:40.148Z,75.03
2022-07-29T04:05:13.527Z,77.45
2022-07-29T04:07:40.629Z,77.04
2022-07-29T04:10:08.412Z,78.38
2022-07-29T04:12:34.798Z,77.49
2022-07-29T04:15:01.181Z,77.31
2022-07-29T04:17:27.555Z,76.33
2022-07-29T04:19:53.945Z,78.02
2022-07-29T04:22:20.359Z,77.51
2022-07-29T04:24:46.784Z,76.90
2022-07-29T04:27:13.328Z,74.81
2022-07-29T04:29:56.112Z,75.41
2022-07-29T04:32:23.806Z,74.45
2022-07-29T04:34:50.242Z,75.95
2022-07-29T04:37:16.722Z,76.78
2022-07-29T04:39:43.215Z,76.72
2022-07-29T04:42:09.589Z,76.50
2022-07-29T04:44:37.228Z,75.66
2022-07-29T04:47:08.763Z,75.42
2022-07-29T04:49:35.199Z,75.74
2022-07-29T04:52:01.668Z,75.80
2022-07-29T04:54:28.092Z,75.63
2022-07-29T04:56:54.528Z,77.46
2022-07-29T04:59:20.930Z,78.13
2022-07-29T05:01:47.414Z,77.04
2022-07-29T05:04:14.197Z,77.57
2022-07-29T05:06:40.899Z,78.10
2022-07-29T05:09:07.274Z,78.63
2022-07-29T05:11:33.794Z,78.38
2022-07-29T05:14:00.176Z,77.81
2022-07-29T05:16:26.837Z,78.84
2022-07-29T05:18:53.352Z,79.04
2022-07-29T05:21:19.785Z,78.98
2022-07-29T05:23:46.173Z,77.73
2022-07-29T05:26:13.049Z,77.30
2022-07-29T05:28:39.425Z,78.06
2022-07-29T05:31:05.826Z,78.55
2022-07-29T05:33:35.671Z,77.92
2022-07-29T05:36:06.403Z,77.58
2022-07-29T05:38:32.933Z,76.21
2022-07-29T05:41:00.377Z,76.88
2022-07-29T05:43:30.270Z,76.86
2022-07-29T05:45:56.949Z,77.06
2022-07-29T05:48:23.447Z,75.79
2022-07-29T05:50:49.934Z,72.44
2022-07-29T05:53:19.074Z,73.63
2022-07-29T05:55:46.792Z,74.33
2022-07-29T05:58:13.366Z,75.48
2022-07-29T06:00:39.798Z,76.17
2022-07-29T06:03:06.439Z,75.84
2022-07-29T06:05:32.874Z,77.09
2022-07-29T06:07:59.306Z,77.10
2022-07-29T06:10:26.189Z,77.64
2022-07-29T06:12:53.922Z,77.58
2022-07-29T06:15:20.497Z,77.61
2022-07-29T06:17:59.172Z,78.30
2022-07-29T06:20:30.532Z,77.78
2022-07-29T06:22:57.648Z,78.47
2022-07-29T06:25:24.110Z,76.27
2022-07-29T06:27:50.625Z,78.13
2022-07-29T06:30:17.078Z,77.63
2022-07-29T06:32:44.555Z,76.50
2022-07-29T06:35:41.863Z,77.11
2022-07-29T06:37:59.561Z,73.84
2022-07-29T06:40:44.980Z,74.47
2022-07-29T06:43:11.753Z,74.08
2022-07-29T06:45:40.484Z,72.84
2022-07-29T06:48:07.009Z,73.47
2022-07-29T06:50:33.497Z,74.63
2022-07-29T06:52:59.872Z,73.51
2022-07-29T06:55:26.297Z,75.09
2022-07-29T06:57:52.747Z,75.59
2022-07-29T07:00:19.182Z,76.02
2022-07-29T07:02:45.627Z,75.19
2022-07-29T07:05:13.835Z,76.77
2022-07-29T07:07:40.273Z,76.39
2022-07-29T07:10:07.050Z,78.02
2022-07-29T07:12:33.449Z,77.97
2022-07-29T07:14:59.887Z,77.93
2022-07-29T07:17:26.279Z,77.11
2022-07-29T07:19:52.672Z,76.70
2022-07-29T07:22:19.098Z,75.88
2022-07-29T07:24:45.504Z,74.36
2022-07-29T07:27:11.981Z,74.73
2022-07-29T07:29:41.946Z,76.10
2022-07-29T07:32:11.149Z,74.68
2022-07-29T07:34:38.815Z,74.81
2022-07-29T07:37:05.639Z,73.71
2022-07-29T07:39:32.054Z,73.55
2022-07-29T07:41:58.475Z,73.56
2022-07-29T07:44:25.070Z,72.29
2022-07-29T07:46:51.486Z,72.11
2022-07-29T07:49:17.916Z,71.71
2022-07-29T07:51:44.358Z,70.81
2022-07-29T07:54:18.465Z,71.22
2022-07-29T07:56:49.835Z,70.98
2022-07-29T07:59:19.351Z,71.31
2022-07-29T08:01:48.184Z,70.40
2022-07-29T08:04:27.757Z,71.15
2022-07-29T08:06:55.568Z,72.07
2022-07-29T08:09:29.257Z,71.37
2022-07-29T08:11:58.481Z,71.46
2022-07-29T08:14:25.023Z,70.39
2022-07-29T08:16:52.329Z,70.31
2022-07-29T08:19:18.966Z,70.25
2022-07-29T08:21:45.414Z,70.49
2022-07-29T08:24:30.523Z,70.65
2022-07-29T08:26:57.004Z,70.92
2022-07-29T08:29:23.414Z,69.46
2022-07-29T08:31:49.960Z,69.14
2022-07-29T08:34:16.492Z,69.49
2022-07-29T08:36:42.877Z,68.53
2022-07-29T08:39:09.282Z,69.42
2022-07-29T08:41:36.323Z,69.68
2022-07-29T08:44:02.752Z,69.73
2022-07-29T08:46:29.247Z,69.58
2022-07-29T08:48:56.319Z,70.12
2022-07-29T08:51:23.042Z,69.40
2022-07-29T08:53:51.011Z,68.77
2022-07-29T08:56:19.599Z,68.45
2022-07-29T08:58:49.858Z,68.90
2022-07-29T09:01:23.391Z,68.31
2022-07-29T09:04:08.308Z,67.52
2022-07-29T09:06:38.353Z,66.25
2022-07-29T09:09:05.174Z,65.79
2022-07-29T09:11:33.480Z,64.72
2022-07-29T09:14:00.316Z,63.16
2022-07-29T09:16:50.782Z,61.96
2022-07-29T09:19:24.972Z,61.07
2022-07-29T09:22:01.660Z,60.58
2022-07-29T09:24:42.143Z,59.76
2022-07-29T09:27:26.843Z,58.56
2022-07-29T09:30:06.752Z,57.23
2022-07-29T09:32:34.420Z,58.36
2022-07-29T09:35:17.406Z,58.20
2022-07-29T09:37:45.580Z,55.87
2022-07-29T09:40:14.020Z,58.19
2022-07-29T09:42:40.627Z,57.25
2022-07-29T09:45:07.991Z,56.81
2022-07-29T09:47:50.004Z,57.00
2022-07-29T09:50:16.950Z,54.33
2022-07-29T09:52:52.395Z,53.75
2022-07-29T09:55:20.066Z,52.62
2022-07-29T09:57:47.823Z,53.98
2022-07-29T10:00:20.355Z,55.85
2022-07-29T10:02:48.097Z,57.01
2022-07-29T10:05:20.649Z,56.97
2022-07-29T10:07:57.396Z,56.60
2022-07-29T10:10:34.660Z,56.11
2022-07-29T10:13:13.527Z,56.38
2022-07-29T10:15:45.043Z,56.30
2022-07-29T10:18:13.648Z,56.91
2022-07-29T10:20:40.688Z,56.34
2022-07-29T10:23:07.265Z,55.88
2022-07-29T10:25:33.851Z,55.89
2022-07-29T10:28:00.387Z,56.30
2022-07-29T10:30:27.978Z,55.88
2022-07-29T10:33:28.309Z,55.96
2022-07-29T10:36:05.904Z,55.94
2022-07-29T10:38:35.260Z,55.88
2022-07-29T10:41:43.656Z,55.37
2022-07-29T10:44:19.316Z,55.66
2022-07-29T10:46:46.998Z,55.63
2022-07-29T10:49:18.587Z,55.45
2022-07-29T10:51:51.068Z,55.61
2022-07-29T10:54:18.718Z,55.83
2022-07-29T10:56:45.594Z,55.12
2022-07-29T10:59:19.214Z,55.08
2022-07-29T11:01:52.464Z,55.32
2022-07-29T11:04:45.039Z,55.27
2022-07-29T11:07:12.160Z,55.49
2022-07-29T11:09:39.538Z,54.54
2022-07-29T11:12:37.324Z,53.76
2022-07-29T11:15:07.879Z,54.20
2022-07-29T11:17:53.317Z,53.31
2022-07-29T11:20:38.122Z,51.90
2022-07-29T11:23:33.784Z,53.05
2022-07-29T11:26:18.530Z,52.34
2022-07-29T11:28:52.075Z,51.04
2022-07-29T11:31:44.647Z,51.28
2022-07-29T11:34:33.378Z,49.27
2022-07-29T11:37:07.346Z,50.77
2022-07-29T11:39:36.728Z,49.05
2022-07-29T11:42:28.480Z,48.96
2022-07-29T11:45:08.434Z,49.71
2022-07-29T11:47:47.810Z,50.42
2022-07-29T11:50:18.957Z,50.39
2022-07-29T11:52:53.553Z,49.50
2022-07-29T11:55:23.465Z,50.32
2022-07-29T11:58:03.572Z,50.41
2022-07-29T12:00:36.908Z,50.84
2022-07-29T12:03:06.549Z,49.59
2022-07-29T12:05:39.795Z,50.29
2022-07-29T12:08:19.927Z,49.83
2022-07-29T12:10:48.143Z,48.47
2022-07-29T12:13:17.215Z,48.52
2022-07-29T12:15:52.212Z,46.31
2022-07-29T12:18:23.986Z,47.46
2022-07-29T12:21:03.403Z,47.98
2022-07-29T12:23:34.469Z,47.33
2022-07-29T12:26:04.941Z,46.43
2022-07-29T12:28:38.327Z,45.71
2022-07-29T12:31:05.542Z,46.18
2022-07-29T12:33:32.476Z,47.29
2022-07-29T12:36:12.795Z,47.16
2022-07-29T12:38:44.052Z,46.17
2022-07-29T12:41:11.326Z,46.21
2022-07-29T12:43:37.752Z,45.68
2022-07-29T12:46:15.855Z,45.71
2022-07-29T12:48:43.903Z,45.24
2022-07-29T12:51:12.610Z,45.20
2022-07-29T12:53:39.783Z,44.25
2022-07-29T12:56:26.699Z,44.05
2022-07-29T12:58:53.916Z,43.08
2022-07-29T13:01:20.982Z,43.53
2022-07-29T13:03:59.855Z,41.82
2022-07-29T13:06:46.158Z,43.75
2022-07-29T13:09:19.442Z,43.08
2022-07-29T13:11:51.776Z,41.81
2022-07-29T13:14:56.934Z,42.17
2022-07-29T13:17:24.108Z,42.15
2022-07-29T13:19:52.934Z,39.13
2022-07-29T13:22:22.252Z,40.44
2022-07-29T13:24:48.600Z,41.06
2022-07-29T13:27:16.668Z,40.43
2022-07-29T13:29:43.106Z,40.45
2022-07-29T13:32:09.671Z,39.75
2022-07-29T13:34:36.074Z,39.69
2022-07-29T13:37:03.060Z,40.05
2022-07-29T13:39:29.540Z,40.57
2022-07-29T13:41:56.302Z,40.34
2022-07-29T13:44:24.074Z,39.38
2022-07-29T13:46:50.977Z,38.16
2022-07-29T13:49:17.477Z,38.98
2022-07-29T13:51:44.188Z,38.22
2022-07-29T13:54:10.599Z,37.91
2022-07-29T13:56:37.069Z,38.32
2022-07-29T13:59:03.471Z,39.24
2022-07-29T14:01:31.321Z,38.21
2022-07-29T14:03:57.990Z,39.65
2022-07-29T14:06:24.626Z,39.18
2022-07-29T14:08:51.954Z,38.21
2022-07-29T14:11:18.597Z,37.11
2022-07-29T14:13:45.417Z,37.13
2022-07-29T14:16:11.995Z,37.74
2022-07-29T14:18:38.593Z,36.62
2022-07-29T14:21:05.073Z,36.15
2022-07-29T14:23:31.552Z,36.66
2022-07-29T14:25:58.291Z,34.69
2022-07-29T14:28:24.685Z,35.90
2022-07-29T14:30:51.048Z,35.10
2022-07-29T14:33:17.870Z,34.75
2022-07-29T14:35:45.439Z,34.16
2022-07-29T14:38:11.983Z,34.38
2022-07-29T14:40:38.922Z,34.64
2022-07-29T14:43:05.422Z,35.70
2022-07-29T14:45:32.425Z,35.20
2022-07-29T14:47:58.971Z,35.49
2022-07-29T14:50:31.497Z,33.29
2022-07-29T14:52:59.109Z,34.87
2022-07-29T14:55:25.622Z,35.34
2022-07-29T14:57:55.435Z,35.13
2022-07-29T15:00:25.274Z,34.47
2022-07-29T15:03:01.998Z,35.57
2022-07-29T15:05:29.440Z,34.77
2022-07-29T15:07:55.846Z,34.20
2022-07-29T15:10:22.327Z,34.67
2022-07-29T15:12:51.273Z,34.66
2022-07-29T15:15:17.738Z,34.16
2022-07-29T15:17:44.182Z,34.53
2022-07-29T15:20:13.607Z,35.06
2022-07-29T15:22:42.096Z,34.86
2022-07-29T15:25:10.525Z,35.22
2022-07-29T15:27:37.109Z,35.15
2022-07-29T15:30:04.157Z,35.60
2022-07-29T15:32:30.590Z,35.57
2022-07-29T15:34:56.984Z,35.36
2022-07-29T15:37:23.460Z,35.26
2022-07-29T15:39:50.798Z,36.68
2022-07-29T15:42:17.843Z,37.21
2022-07-29T15:44:44.339Z,37.57
2022-07-29T15:47:10.822Z,37.11
2022-07-29T15:49:48.000Z,37.59
2022-07-29T15:52:18.231Z,36.62
2022-07-29T15:54:44.734Z,36.77
2022-07-29T15:57:11.169Z,36.36
2022-07-29T15:59:37.598Z,37.60
2022-07-29T16:02:04.206Z,37.06
2022-07-29T16:04:31.915Z,37.10
2022-07-29T16:06:58.777Z,35.77
2022-07-29T16:09:26.528Z,36.16
2022-07-29T16:11:53.968Z,36.71
2022-07-29T16:14:20.770Z,35.37
2022-07-29T16:16:47.577Z,36.22
2022-07-29T16:19:14.583Z,35.58
2022-07-29T16:21:42.533Z,36.35
2022-07-29T16:24:23.134Z,35.04
2022-07-29T16:30:09.590Z,35.28
2022-07-29T16:32:36.182Z,34.77
2022-07-29T16:35:05.058Z,35.06
2022-07-29T16:37:35.290Z,35.89
2022-07-29T16:40:02.295Z,35.94
2022-07-29T16:42:45.677Z,35.71
2022-07-29T16:45:12.835Z,35.39
2022-07-29T16:47:39.331Z,36.19
2022-07-29T16:50:06.249Z,35.64
2022-07-29T16:52:32.712Z,35.68
2022-07-29T16:54:59.141Z,35.99
2022-07-29T16:57:25.862Z,36.36
2022-07-29T16:59:52.493Z,36.40
2022-07-29T17:02:18.965Z,36.13
2022-07-29T17:04:45.498Z,36.68
2022-07-29T17:07:12.029Z,36.30
2022-07-29T17:09:38.528Z,36.09
2022-07-29T17:12:05.466Z,36.84
2022-07-29T17:14:32.270Z,36.50
2022-07-29T17:17:01.959Z,36.15
2022-07-29T17:19:32.212Z,36.93
2022-07-29T17:22:09.426Z,36.79
2022-07-29T17:24:38.827Z,37.72
2022-07-29T17:27:06.155Z,38.15
2022-07-29T17:29:32.743Z,38.58
2022-07-29T17:31:59.990Z,37.22
2022-07-29T17:34:26.940Z,38.81
2022-07-29T17:36:53.552Z,36.94
2022-07-29T17:39:19.949Z,36.97
2022-07-29T17:41:46.819Z,37.11
2022-07-29T17:44:13.498Z,36.70
2022-07-29T17:46:40.642Z,37.51
2022-07-29T17:49:07.335Z,36.96
2022-07-29T17:51:34.325Z,37.42
2022-07-29T17:54:00.846Z,37.72
2022-07-29T17:56:28.367Z,37.09
2022-07-29T17:58:55.088Z,37.09
2022-07-29T18:01:23.385Z,36.86
2022-07-29T18:03:50.079Z,36.66
2022-07-29T18:06:16.442Z,36.44
2022-07-29T18:08:43.134Z,36.45
2022-07-29T18:11:09.548Z,37.03
2022-07-29T18:13:42.260Z,36.51
2022-07-29T18:16:09.411Z,36.77
2022-07-29T18:18:36.064Z,37.11
2022-07-29T18:21:03.445Z,36.82
2022-07-29T18:23:30.206Z,37.18
2022-07-29T18:25:56.770Z,37.18
2022-07-29T18:28:23.655Z,37.40
2022-07-29T18:30:50.378Z,37.31
2022-07-29T18:33:22.348Z,37.50
2022-07-29T18:35:51.945Z,37.53
2022-07-29T18:38:18.958Z,37.39
2022-07-29T18:40:45.916Z,37.86
2022-07-29T18:43:12.923Z,37.97
2022-07-29T18:45:39.734Z,38.80
2022-07-29T18:48:08.373Z,38.58
2022-07-29T18:50:40.238Z,38.60
2022-07-29T18:53:06.862Z,38.41
2022-07-29T18:55:33.366Z,39.28
2022-07-29T18:58:05.608Z,38.67
2022-07-29T19:00:36.029Z,39.19
2022-07-29T19:03:13.673Z,39.07
2022-07-29T19:05:43.949Z,39.76
2022-07-29T19:08:10.699Z,39.82
2022-07-29T19:10:37.136Z,39.30
2022-07-29T19:13:03.670Z,39.57
2022-07-29T19:15:30.475Z,39.52
2022-07-29T19:18:00.961Z,39.83
2022-07-29T19:20:28.315Z,39.91
2022-07-29T19:22:58.720Z,39.97
2022-07-29T19:25:32.823Z,39.49
2022-07-29T19:28:02.259Z,39.86
2022-07-29T19:30:28.704Z,40.05
2022-07-29T19:32:55.194Z,39.86
2022-07-29T19:35:24.548Z,40.47
2022-07-29T19:37:52.151Z,41.17
2022-07-29T19:40:18.899Z,41.30
2022-07-29T19:42:45.563Z,41.40
2022-07-29T19:45:12.110Z,41.94
2022-07-29T19:47:38.556Z,41.92
2022-07-29T19:50:05.571Z,42.84
2022-07-29T19:52:32.337Z,42.88
2022-07-29T19:54:58.861Z,42.66
2022-07-29T19:57:25.283Z,42.59
2022-07-29T19:59:52.715Z,43.05
2022-07-29T20:02:19.323Z,43.33
2022-07-29T20:04:45.874Z,43.59
2022-07-29T20:07:13.484Z,44.14
2022-07-29T20:09:41.245Z,43.87
2022-07-29T20:12:09.041Z,43.65
2022-07-29T20:14:36.063Z,44.36
2022-07-29T20:17:02.847Z,44.04
2022-07-29T20:19:29.486Z,45.32
2022-07-29T20:21:55.901Z,44.95
2022-07-29T20:24:22.421Z,45.82
2022-07-29T20:26:52.324Z,45.73
2022-07-29T20:29:26.806Z,45.82
2022-07-29T20:31:56.442Z,45.93
2022-07-29T20:34:23.127Z,45.50
2022-07-29T20:36:49.736Z,46.45
2022-07-29T20:39:16.335Z,45.99
2022-07-29T20:41:42.701Z,45.84
2022-07-29T20:44:09.312Z,45.82
2022-07-29T20:46:35.738Z,45.70
2022-07-29T20:49:02.325Z,44.93
2022-07-29T20:51:28.776Z,45.33
2022-07-29T20:53:55.209Z,44.96
2022-07-29T20:56:21.714Z,45.02
2022-07-29T20:58:48.129Z,45.73
2022-07-29T21:01:14.783Z,45.66
2022-07-29T21:03:41.344Z,45.78
2022-07-29T21:06:09.042Z,45.65
2022-07-29T21:08:35.749Z,45.86
2022-07-29T21:11:02.138Z,45.60
2022-07-29T21:13:28.523Z,45.76
2022-07-29T21:15:59.565Z,45.55
2022-07-29T21:18:34.236Z,45.94
2022-07-29T21:21:01.257Z,46.46
2022-07-29T21:23:28.088Z,46.52
2022-07-29T21:25:54.885Z,46.31
2022-07-29T21:28:27.729Z,45.93
2022-07-29T21:30:55.718Z,46.30
2022-07-29T21:33:22.379Z,46.27
2022-07-29T21:36:26.621Z,45.87
2022-07-29T21:38:36.448Z,46.45
2022-07-29T21:41:04.727Z,46.48
2022-07-29T21:43:31.600Z,46.15
2022-07-29T21:46:00.095Z,46.26
2022-07-29T21:48:27.975Z,46.73
2022-07-29T21:50:54.882Z,46.49
2022-07-29T21:53:22.115Z,46.28
2022-07-29T21:55:54.291Z,46.60
2022-07-29T21:58:22.769Z,46.95
2022-07-29T22:00:49.184Z,47.00
2022-07-29T22:03:15.718Z,47.25
2022-07-29T22:05:42.277Z,47.56
2022-07-29T22:08:08.710Z,47.22
2022-07-29T22:10:35.686Z,47.16
2022-07-29T22:13:03.091Z,47.23
2022-07-29T22:15:30.800Z,47.52
2022-07-29T22:17:57.888Z,47.79
2022-07-29T22:20:24.745Z,47.71
2022-07-29T22:22:51.362Z,47.69
2022-07-29T22:25:17.877Z,47.93
2022-07-29T22:27:44.389Z,48.32
2022-07-29T22:30:11.306Z,49.73
2022-07-29T22:32:37.752Z,49.28
2022-07-29T22:35:04.487Z,49.62
2022-07-29T22:37:31.060Z,49.75
2022-07-29T22:39:57.502Z,49.20
2022-07-29T22:42:23.954Z,49.58
2022-07-29T22:44:50.412Z,49.74
2022-07-29T22:47:16.938Z,49.37
2022-07-29T22:49:43.382Z,49.98
2022-07-29T22:52:09.906Z,50.99
2022-07-29T22:54:38.224Z,50.24
2022-07-29T22:57:06.018Z,50.26
2022-07-29T22:59:32.430Z,51.15
2022-07-29T23:01:59.365Z,51.53
2022-07-29T23:04:25.850Z,51.16
2022-07-29T23:06:52.274Z,50.64
2022-07-29T23:09:18.903Z,50.62
2022-07-29T23:11:47.071Z,51.15
2022-07-29T23:14:13.525Z,51.78
2022-07-29T23:16:40.056Z,52.41
2022-07-29T23:19:06.522Z,52.60
2022-07-29T23:21:33.118Z,52.28
2022-07-29T23:23:59.527Z,52.93
2022-07-29T23:26:26.012Z,52.32
2022-07-29T23:28:52.452Z,52.26
2022-07-29T23:31:19.020Z,52.10
2022-07-29T23:33:45.620Z,52.18
2022-07-29T23:36:12.042Z,52.25
2022-07-29T23:38:40.830Z,52.57
2022-07-29T23:41:09.539Z,52.54
2022-07-29T23:43:37.132Z,52.37
2022-07-29T23:46:04.348Z,52.94
2022-07-29T23:48:34.437Z,53.75
2022-07-29T23:51:01.113Z,53.93
2022-07-29T23:53:28.394Z,54.62
2022-07-29T23:55:55.626Z,54.08
2022-07-29T23:58:22.072Z,54.98
